createdAt,value
2023-07-11T00:01:21.345Z,22.58
2023-07-11T00:03:50.334Z,22.54
2023-07-11T00:06:20.609Z,22.44
2023-07-11T00:08:47.550Z,22.42
2023-07-11T00:11:17.461Z,22.39
2023-07-11T00:13:44.415Z,22.24
2023-07-11T00:16:13.937Z,22.30
2023-07-11T00:18:41.346Z,22.23
2023-07-11T00:21:08.075Z,22.17
2023-07-11T00:23:34.689Z,22.07
2023-07-11T00:26:01.459Z,22.04
2023-07-11T00:28:28.445Z,22.18
2023-07-11T00:30:55.549Z,22.10
2023-07-11T00:33:24.827Z,22.10
2023-07-11T00:35:53.992Z,22.05
2023-07-11T00:38:21.846Z,21.82
2023-07-11T00:40:49.991Z,22.05
2023-07-11T00:43:19.728Z,21.99
2023-07-11T00:46:12.402Z,21.90
2023-07-11T00:48:49.709Z,21.71
2023-07-11T00:51:26.078Z,21.68
2023-07-11T00:53:52.978Z,21.67
2023-07-11T00:56:23.014Z,21.66
2023-07-11T00:58:50.735Z,21.15
2023-07-11T01:01:21.839Z,21.59
2023-07-11T01:03:49.940Z,21.57
2023-07-11T01:06:20.224Z,21.50
2023-07-11T01:08:49.400Z,21.47
2023-07-11T01:11:17.178Z,21.43
2023-07-11T01:13:44.489Z,21.45
2023-07-11T01:16:11.225Z,21.32
2023-07-11T01:18:38.172Z,21.15
2023-07-11T01:21:06.276Z,21.36
2023-07-11T01:23:34.609Z,21.05
2023-07-11T01:26:03.694Z,21.29
2023-07-11T01:28:30.579Z,21.25
2023-07-11T01:30:57.749Z,21.24
2023-07-11T01:33:26.405Z,21.17
2023-07-11T01:35:56.357Z,21.11
2023-07-11T01:38:26.182Z,21.09
2023-07-11T01:40:55.359Z,21.07
2023-07-11T01:43:24.308Z,21.00
2023-07-11T01:45:51.085Z,20.99
2023-07-11T01:48:17.774Z,20.98
2023-07-11T01:50:46.630Z,20.83
2023-07-11T01:53:13.732Z,20.79
2023-07-11T01:55:40.432Z,20.80
2023-07-11T01:58:09.246Z,20.79
2023-07-11T02:00:35.968Z,20.74
2023-07-11T02:03:02.984Z,20.70
2023-07-11T02:05:32.158Z,20.61
2023-07-11T02:07:58.766Z,20.61
2023-07-11T02:10:25.487Z,20.70
2023-07-11T02:12:52.102Z,20.68
2023-07-11T02:15:21.183Z,20.66
2023-07-11T02:17:50.266Z,20.60
2023-07-11T02:20:16.981Z,20.53
2023-07-11T02:22:43.980Z,20.38
2023-07-11T02:25:12.824Z,20.41
2023-07-11T02:27:39.469Z,20.49
2023-07-11T02:30:09.721Z,20.45
2023-07-11T02:32:40.748Z,20.41
2023-07-11T02:35:07.835Z,20.32
2023-07-11T02:37:34.570Z,20.24
2023-07-11T02:40:03.792Z,20.28
2023-07-11T02:42:30.506Z,20.25
2023-07-11T02:44:59.491Z,20.23
2023-07-11T02:47:26.166Z,20.24
2023-07-11T02:49:52.804Z,20.22
2023-07-11T02:52:21.925Z,20.15
2023-07-11T02:54:50.727Z,20.12
2023-07-11T02:57:17.340Z,20.07
2023-07-11T02:59:44.048Z,20.15
2023-07-11T03:02:10.726Z,20.14
2023-07-11T03:04:39.960Z,20.13
2023-07-11T03:07:06.687Z,20.03
2023-07-11T03:09:34.366Z,20.09
2023-07-11T03:12:00.974Z,20.08
2023-07-11T03:14:27.760Z,20.02
2023-07-11T03:16:54.953Z,20.04
2023-07-11T03:19:22.338Z,19.95
2023-07-11T03:21:49.784Z,19.89
2023-07-11T03:24:16.831Z,19.90
2023-07-11T03:26:47.380Z,20.02
2023-07-11T03:29:15.358Z,20.00
2023-07-11T03:31:42.924Z,19.99
2023-07-11T03:34:09.590Z,19.98
2023-07-11T03:36:36.689Z,19.97
2023-07-11T03:39:04.988Z,19.85
2023-07-11T03:41:34.033Z,19.90
2023-07-11T03:44:03.743Z,19.95
2023-07-11T03:46:30.427Z,19.96
2023-07-11T03:49:03.433Z,19.91
2023-07-11T03:51:30.067Z,19.95
2023-07-11T03:53:56.757Z,19.89
2023-07-11T03:56:23.600Z,19.95
2023-07-11T03:58:51.131Z,19.70
2023-07-11T04:01:20.506Z,19.98
2023-07-11T04:03:47.340Z,20.00
2023-07-11T04:06:14.554Z,19.98
2023-07-11T04:08:41.607Z,19.96
2023-07-11T04:11:10.795Z,20.06
2023-07-11T04:13:37.989Z,20.12
2023-07-11T04:16:05.172Z,20.16
2023-07-11T04:18:35.363Z,20.31
2023-07-11T04:21:02.202Z,21.27
2023-07-11T04:23:29.247Z,22.51
2023-07-11T04:25:56.067Z,23.40
2023-07-11T04:28:24.967Z,24.33
2023-07-11T04:30:51.637Z,24.69
2023-07-11T04:33:19.356Z,25.13
2023-07-11T04:35:48.898Z,24.76
2023-07-11T04:38:15.689Z,24.22
2023-07-11T04:40:46.507Z,23.70
2023-07-11T04:43:16.038Z,24.39
2023-07-11T04:45:44.860Z,25.73
2023-07-11T04:48:11.540Z,27.47
2023-07-11T04:50:43.142Z,28.60
2023-07-11T04:53:12.358Z,29.65
2023-07-11T04:55:39.268Z,30.63
2023-07-11T04:58:05.871Z,31.30
2023-07-11T05:00:32.466Z,30.66
2023-07-11T05:02:59.072Z,30.41
2023-07-11T05:05:27.965Z,31.68
2023-07-11T05:07:54.568Z,32.75
2023-07-11T05:10:23.665Z,33.49
2023-07-11T05:12:52.345Z,34.26
2023-07-11T05:15:19.076Z,34.90
2023-07-11T05:17:50.524Z,35.34
2023-07-11T05:20:17.182Z,35.99
2023-07-11T05:22:46.069Z,36.59
2023-07-11T05:25:12.734Z,37.02
2023-07-11T05:27:41.589Z,37.53
2023-07-11T05:30:09.301Z,37.82
2023-07-11T05:32:38.489Z,38.22
2023-07-11T05:35:10.948Z,38.64
2023-07-11T05:37:37.707Z,39.06
2023-07-11T05:40:07.133Z,39.35
2023-07-11T05:42:33.708Z,39.87
2023-07-11T05:45:00.344Z,40.26
2023-07-11T05:47:27.128Z,40.55
2023-07-11T05:49:53.730Z,40.62
2023-07-11T05:52:22.652Z,40.76
2023-07-11T05:54:49.375Z,41.30
2023-07-11T05:57:16.248Z,41.34
2023-07-11T05:59:42.940Z,41.75
2023-07-11T06:02:10.911Z,41.92
2023-07-11T06:04:37.576Z,42.23
2023-07-11T06:07:06.619Z,42.12
2023-07-11T06:09:35.788Z,42.33
2023-07-11T06:12:04.842Z,42.34
2023-07-11T06:14:31.543Z,42.56
2023-07-11T06:16:58.265Z,42.46
2023-07-11T06:19:25.001Z,42.93
2023-07-11T06:21:51.671Z,43.15
2023-07-11T06:24:18.362Z,43.29
2023-07-11T06:26:45.013Z,43.19
2023-07-11T06:29:11.711Z,43.38
2023-07-11T06:31:38.621Z,43.63
2023-07-11T06:34:05.373Z,43.97
2023-07-11T06:36:32.128Z,44.20
2023-07-11T06:38:58.823Z,44.40
2023-07-11T06:41:25.837Z,44.31
2023-07-11T06:43:54.341Z,44.43
2023-07-11T06:46:21.417Z,44.51
2023-07-11T06:48:48.194Z,44.22
2023-07-11T06:51:17.456Z,44.49
2023-07-11T06:53:44.095Z,44.62
2023-07-11T06:56:11.045Z,44.83
2023-07-11T06:58:40.145Z,44.89
2023-07-11T07:01:13.759Z,44.89
2023-07-11T07:03:46.123Z,45.23
2023-07-11T07:06:14.712Z,45.49
2023-07-11T07:08:42.479Z,45.86
2023-07-11T07:11:10.294Z,45.61
2023-07-11T07:13:39.998Z,45.12
2023-07-11T07:16:13.502Z,45.17
2023-07-11T07:18:42.746Z,45.56
2023-07-11T07:21:11.216Z,45.75
2023-07-11T07:23:38.267Z,45.89
2023-07-11T07:26:05.936Z,45.97
2023-07-11T07:28:34.077Z,45.80
2023-07-11T07:31:04.774Z,45.96
2023-07-11T07:33:34.487Z,46.53
2023-07-11T07:36:06.594Z,46.61
2023-07-11T07:38:34.413Z,46.77
2023-07-11T07:41:05.650Z,46.92
2023-07-11T07:43:34.103Z,46.72
2023-07-11T07:46:02.782Z,46.63
2023-07-11T07:48:29.711Z,46.63
2023-07-11T07:51:09.385Z,46.75
2023-07-11T07:53:36.768Z,46.82
2023-07-11T07:56:15.557Z,47.00
2023-07-11T07:58:44.577Z,46.66
2023-07-11T08:01:14.298Z,46.53
2023-07-11T08:03:44.180Z,46.28
2023-07-11T08:06:16.906Z,46.61
2023-07-11T08:08:46.372Z,46.59
2023-07-11T08:11:15.234Z,46.69
2023-07-11T08:16:29.401Z,45.57
2023-07-11T08:18:58.096Z,45.51
2023-07-11T08:21:25.530Z,45.47
2023-07-11T08:23:52.881Z,45.66
2023-07-11T08:26:20.302Z,45.56
2023-07-11T08:28:47.285Z,44.28
2023-07-11T08:31:15.575Z,43.51
2023-07-11T08:33:43.326Z,44.14
2023-07-11T08:36:12.417Z,43.57
2023-07-11T08:38:39.246Z,42.89
2023-07-11T08:41:30.482Z,43.36
2023-07-11T08:44:03.749Z,43.57
2023-07-11T08:46:42.402Z,43.67
2023-07-11T08:49:18.866Z,43.49
2023-07-11T08:51:52.338Z,42.52
2023-07-11T08:54:40.218Z,42.47
2023-07-11T08:57:11.948Z,42.13
2023-07-11T08:59:48.968Z,41.67
2023-07-11T09:02:29.807Z,41.95
2023-07-11T09:04:57.373Z,41.05
2023-07-11T09:07:41.824Z,39.78
2023-07-11T09:10:56.862Z,38.65
2023-07-11T09:13:48.770Z,38.29
2023-07-11T09:16:36.366Z,39.26
2023-07-11T09:19:24.394Z,38.62
2023-07-11T09:21:58.854Z,37.77
2023-07-11T09:24:38.038Z,36.85
2023-07-11T09:27:26.595Z,36.41
2023-07-11T09:29:58.280Z,36.82
2023-07-11T09:32:35.682Z,36.59
2023-07-11T09:35:16.038Z,37.15
2023-07-11T09:37:47.798Z,37.13
2023-07-11T09:40:38.347Z,36.53
2023-07-11T09:43:06.154Z,36.57
2023-07-11T09:45:42.895Z,37.19
2023-07-11T09:48:15.453Z,37.01
2023-07-11T09:51:02.490Z,36.45
2023-07-11T09:53:35.475Z,36.19
2023-07-11T09:58:35.930Z,35.51
2023-07-11T10:01:08.516Z,36.01
2023-07-11T10:03:37.186Z,36.00
2023-07-11T10:06:07.811Z,36.19
2023-07-11T10:08:37.575Z,36.30
2023-07-11T10:11:07.158Z,36.21
2023-07-11T10:16:07.607Z,36.01
2023-07-11T10:18:36.794Z,36.13
2023-07-11T10:21:32.007Z,35.78
2023-07-11T10:24:03.416Z,35.42
2023-07-11T10:26:32.121Z,35.33
2023-07-11T10:29:08.802Z,35.51
2023-07-11T10:31:51.167Z,35.54
2023-07-11T10:34:51.193Z,35.70
2023-07-11T10:37:30.055Z,35.97
2023-07-11T10:40:20.585Z,36.10
2023-07-11T10:43:00.669Z,36.07
2023-07-11T10:45:34.200Z,35.95
2023-07-11T10:48:08.227Z,36.06
2023-07-11T10:51:01.308Z,35.98
2023-07-11T10:53:36.913Z,35.91
2023-07-11T10:56:14.476Z,35.75
2023-07-11T10:58:43.390Z,35.69
2023-07-11T11:01:19.185Z,35.68
2023-07-11T11:04:41.667Z,35.65
2023-07-11T11:07:31.939Z,36.03
2023-07-11T11:10:14.180Z,36.12
2023-07-11T11:12:57.110Z,36.27
2023-07-11T11:15:41.274Z,36.32
2023-07-11T11:18:40.947Z,36.42
2023-07-11T11:21:30.218Z,36.24
2023-07-11T11:24:22.286Z,36.08
2023-07-11T11:27:18.502Z,36.11
2023-07-11T11:29:51.741Z,35.62
2023-07-11T11:32:28.607Z,36.00
2023-07-11T11:35:25.910Z,35.99
2023-07-11T11:38:06.442Z,35.86
2023-07-11T11:40:42.641Z,35.79
2023-07-11T11:43:20.400Z,35.63
2023-07-11T11:51:12.820Z,35.31
2023-07-11T11:53:51.084Z,35.32
2023-07-11T11:56:25.037Z,35.45
2023-07-11T11:58:58.927Z,35.26
2023-07-11T12:01:47.365Z,35.39
2023-07-11T12:04:33.527Z,35.37
2023-07-11T12:07:04.343Z,35.48
2023-07-11T12:09:54.170Z,35.61
2023-07-11T12:12:56.717Z,35.78
2023-07-11T12:15:33.392Z,35.77
2023-07-11T12:18:24.543Z,35.85
2023-07-11T12:21:16.430Z,35.80
2023-07-11T12:24:38.205Z,35.84
2023-07-11T12:26:42.553Z,35.80
2023-07-11T12:29:52.622Z,36.04
2023-07-11T12:32:34.564Z,36.18
2023-07-11T12:35:07.597Z,36.29
2023-07-11T12:37:58.116Z,36.15
2023-07-11T12:40:27.833Z,36.06
2023-07-11T12:43:00.737Z,36.11
2023-07-11T12:45:38.310Z,36.19
2023-07-11T12:48:04.906Z,36.17
2023-07-11T12:50:52.190Z,36.11
2023-07-11T12:53:22.710Z,36.11
2023-07-11T12:55:57.318Z,36.08
2023-07-11T12:58:27.135Z,36.13
2023-07-11T13:00:56.164Z,36.29
2023-07-11T13:03:25.496Z,36.28
2023-07-11T13:06:22.008Z,36.22
2023-07-11T13:08:49.996Z,36.18
2023-07-11T13:11:23.057Z,36.24
2023-07-11T13:13:51.081Z,36.34
2023-07-11T13:16:23.892Z,36.49
2023-07-11T13:18:52.402Z,36.39
2023-07-11T13:21:22.852Z,36.23
2023-07-11T13:23:50.485Z,36.13
2023-07-11T13:26:23.490Z,36.09
2023-07-11T13:29:18.715Z,36.03
2023-07-11T13:31:47.852Z,35.87
2023-07-11T13:34:18.986Z,35.84
2023-07-11T13:36:49.455Z,35.82
2023-07-11T13:39:22.002Z,35.79
2023-07-11T13:41:53.483Z,35.57
2023-07-11T13:44:31.781Z,35.54
2023-07-11T13:47:03.741Z,35.66
2023-07-11T13:49:40.870Z,35.75
2023-07-11T13:52:42.344Z,35.79
2023-07-11T13:55:26.637Z,35.67
2023-07-11T13:57:54.040Z,35.40
2023-07-11T14:00:23.602Z,35.28
2023-07-11T14:02:51.664Z,35.15
2023-07-11T14:05:24.558Z,35.07
2023-07-11T14:07:58.773Z,35.01
2023-07-11T14:10:30.231Z,35.01
2023-07-11T14:12:58.872Z,35.26
2023-07-11T14:15:28.545Z,35.28
2023-07-11T14:18:01.969Z,35.51
2023-07-11T14:20:31.234Z,35.84
2023-07-11T14:22:58.377Z,35.68
2023-07-11T14:25:32.091Z,35.41
2023-07-11T14:28:01.335Z,35.36
2023-07-11T14:30:30.587Z,35.40
2023-07-11T14:32:57.285Z,35.41
2023-07-11T14:35:26.786Z,35.25
2023-07-11T14:37:54.771Z,35.28
2023-07-11T14:40:30.038Z,35.21
2023-07-11T14:42:56.823Z,35.08
2023-07-11T14:45:25.737Z,35.11
2023-07-11T14:47:57.718Z,35.24
2023-07-11T14:50:27.517Z,35.26
2023-07-11T14:52:54.936Z,35.16
2023-07-11T14:57:58.591Z,35.31
2023-07-11T15:00:27.672Z,35.30
2023-07-11T15:02:54.627Z,35.29
2023-07-11T15:10:29.624Z,35.43
2023-07-11T15:15:34.424Z,35.14
2023-07-11T15:18:01.569Z,35.07
2023-07-11T15:20:28.676Z,35.01
2023-07-11T15:23:02.498Z,35.02
2023-07-11T15:25:37.457Z,34.92
2023-07-11T15:28:23.007Z,34.70
2023-07-11T15:30:52.386Z,34.61
2023-07-11T15:33:29.758Z,34.63
2023-07-11T15:35:58.495Z,34.63
2023-07-11T15:38:25.589Z,34.54
2023-07-11T15:40:56.614Z,34.65
2023-07-11T15:43:27.437Z,34.60
2023-07-11T15:45:56.427Z,34.73
2023-07-11T15:48:23.927Z,34.70
2023-07-11T15:50:52.571Z,34.51
2023-07-11T15:53:19.836Z,34.46
2023-07-11T15:55:49.188Z,34.26
2023-07-11T15:58:23.261Z,34.09
2023-07-11T16:00:50.934Z,34.09
2023-07-11T16:03:23.761Z,34.01
2023-07-11T16:05:52.312Z,33.93
2023-07-11T16:08:24.126Z,33.90
2023-07-11T16:10:55.590Z,33.87
2023-07-11T16:13:24.974Z,33.86
2023-07-11T16:15:54.395Z,33.75
2023-07-11T16:18:24.061Z,33.92
2023-07-11T16:20:53.400Z,33.93
2023-07-11T16:23:22.379Z,33.84
2023-07-11T16:25:49.869Z,33.53
2023-07-11T16:28:27.528Z,33.48
2023-07-11T16:31:00.876Z,33.31
2023-07-11T16:33:28.537Z,33.33
2023-07-11T16:35:59.783Z,33.21
2023-07-11T16:38:32.478Z,33.13
2023-07-11T16:41:00.676Z,33.04
2023-07-11T16:43:30.330Z,33.02
2023-07-11T16:45:58.728Z,32.91
2023-07-11T16:48:29.338Z,32.56
2023-07-11T16:51:00.222Z,32.55
2023-07-11T16:53:31.089Z,32.11
2023-07-11T16:55:58.722Z,31.92
2023-07-11T16:58:39.535Z,31.75
2023-07-11T17:01:08.299Z,31.24
2023-07-11T17:03:35.449Z,31.78
2023-07-11T17:06:02.581Z,31.59
2023-07-11T17:08:32.688Z,31.56
2023-07-11T17:11:00.013Z,31.50
2023-07-11T17:13:35.897Z,31.47
2023-07-11T17:16:06.253Z,31.37
2023-07-11T17:18:33.258Z,31.40
2023-07-11T17:21:02.513Z,31.16
2023-07-11T17:23:29.308Z,31.24
2023-07-11T17:25:56.663Z,31.02
2023-07-11T17:28:27.648Z,31.03
2023-07-11T17:30:57.527Z,30.98
2023-07-11T17:33:31.815Z,30.93
2023-07-11T17:36:02.370Z,30.83
2023-07-11T17:38:31.338Z,30.68
2023-07-11T17:40:58.424Z,30.65
2023-07-11T17:43:27.558Z,30.52
2023-07-11T17:46:20.884Z,30.39
2023-07-11T17:48:46.678Z,30.27
2023-07-11T17:51:14.226Z,30.14
2023-07-11T17:53:44.196Z,30.08
2023-07-11T17:56:14.242Z,29.97
2023-07-11T17:58:41.704Z,29.91
2023-07-11T18:01:19.269Z,29.92
2023-07-11T18:03:47.416Z,29.75
2023-07-11T18:06:22.590Z,29.69
2023-07-11T18:08:50.423Z,29.66
2023-07-11T18:11:17.267Z,29.43
2023-07-11T18:13:46.993Z,29.29
2023-07-11T18:16:18.530Z,29.39
2023-07-11T18:18:47.538Z,29.28
2023-07-11T18:21:16.330Z,29.11
2023-07-11T18:23:42.954Z,29.01
2023-07-11T18:26:17.317Z,28.79
2023-07-11T18:28:47.833Z,28.94
2023-07-11T18:31:21.618Z,28.92
2023-07-11T18:33:50.716Z,28.81
2023-07-11T18:36:27.399Z,28.84
2023-07-11T18:38:58.540Z,28.77
2023-07-11T18:41:27.398Z,28.73
2023-07-11T18:43:54.172Z,28.78
2023-07-11T18:46:25.019Z,29.03
2023-07-11T18:48:51.759Z,29.08
2023-07-11T18:51:18.732Z,29.09
2023-07-11T18:53:45.389Z,28.64
2023-07-11T18:56:18.056Z,28.40
2023-07-11T18:58:45.665Z,28.28
2023-07-11T19:01:15.901Z,28.15
2023-07-11T19:03:42.787Z,27.97
2023-07-11T19:06:18.377Z,27.90
2023-07-11T19:08:48.489Z,27.80
2023-07-11T19:11:18.131Z,27.74
2023-07-11T19:13:45.569Z,27.61
2023-07-11T19:16:23.879Z,27.57
2023-07-11T19:18:52.196Z,27.45
2023-07-11T19:21:23.516Z,27.35
2023-07-11T19:23:50.320Z,27.11
2023-07-11T19:26:30.427Z,27.14
2023-07-11T19:29:01.189Z,27.11
2023-07-11T19:31:35.196Z,27.01
2023-07-11T19:34:02.876Z,26.92
2023-07-11T19:36:31.256Z,26.86
2023-07-11T19:38:58.303Z,26.80
2023-07-11T19:41:29.009Z,26.76
2023-07-11T19:43:55.615Z,26.63
2023-07-11T19:46:24.503Z,26.64
2023-07-11T19:48:51.595Z,26.55
2023-07-11T19:51:18.283Z,26.53
2023-07-11T19:53:45.020Z,26.34
2023-07-11T19:56:23.789Z,26.27
2023-07-11T19:58:53.736Z,26.24
2023-07-11T20:01:20.818Z,26.13
2023-07-11T20:03:48.172Z,26.03
2023-07-11T20:06:21.053Z,25.85
2023-07-11T20:08:49.043Z,25.76
2023-07-11T20:11:16.542Z,25.65
2023-07-11T20:13:45.464Z,25.58
2023-07-11T20:16:15.250Z,25.54
2023-07-11T20:18:42.026Z,25.49
2023-07-11T20:21:19.158Z,25.44
2023-07-11T20:23:49.084Z,25.39
2023-07-11T20:26:26.922Z,25.30
2023-07-11T20:28:54.525Z,25.24
2023-07-11T20:31:22.161Z,25.18
2023-07-11T20:33:51.407Z,25.05
2023-07-11T20:36:19.467Z,24.90
2023-07-11T20:38:46.194Z,24.38
2023-07-11T20:41:16.514Z,24.84
2023-07-11T20:43:44.275Z,24.68
2023-07-11T20:46:20.900Z,24.57
2023-07-11T20:48:48.880Z,23.95
2023-07-11T20:51:18.296Z,24.64
2023-07-11T20:53:48.923Z,24.65
2023-07-11T20:56:22.285Z,24.43
2023-07-11T20:58:50.538Z,24.62
2023-07-11T21:01:21.276Z,24.36
2023-07-11T21:03:48.732Z,24.62
2023-07-11T21:06:27.291Z,24.61
2023-07-11T21:08:54.011Z,24.58
2023-07-11T21:11:20.911Z,24.50
2023-07-11T21:13:52.318Z,24.53
2023-07-11T21:16:22.012Z,24.53
2023-07-11T21:18:49.026Z,24.45
2023-07-11T21:21:16.194Z,24.39
2023-07-11T21:23:46.044Z,24.13
2023-07-11T21:26:16.338Z,24.03
2023-07-11T21:28:44.166Z,23.74
2023-07-11T21:31:13.759Z,23.69
2023-07-11T21:33:43.292Z,23.58
2023-07-11T21:36:19.888Z,23.54
2023-07-11T21:38:47.975Z,23.48
2023-07-11T21:41:17.368Z,23.48
2023-07-11T21:43:48.263Z,23.47
2023-07-11T21:46:41.398Z,23.42
2023-07-11T21:49:11.500Z,23.40
2023-07-11T21:51:38.274Z,23.40
2023-07-11T21:54:07.245Z,23.31
2023-07-11T21:56:33.901Z,23.39
2023-07-11T21:59:05.680Z,23.30
2023-07-11T22:01:32.865Z,23.23
2023-07-11T22:04:01.990Z,23.19
2023-07-11T22:06:31.665Z,23.24
2023-07-11T22:08:58.883Z,23.12
2023-07-11T22:11:25.701Z,23.04
2023-07-11T22:13:52.728Z,22.90
2023-07-11T22:16:28.742Z,22.96
2023-07-11T22:18:58.583Z,22.79
2023-07-11T22:21:26.918Z,22.55
2023-07-11T22:23:54.125Z,22.70
2023-07-11T22:26:32.238Z,22.65
2023-07-11T22:29:01.754Z,22.55
2023-07-11T22:31:28.764Z,22.48
2023-07-11T22:33:55.767Z,22.52
2023-07-11T22:36:24.998Z,22.48
2023-07-11T22:38:51.587Z,22.53
2023-07-11T22:41:18.333Z,22.51
2023-07-11T22:43:46.957Z,22.52
2023-07-11T22:46:17.912Z,22.45
2023-07-11T22:48:48.294Z,22.56
2023-07-11T22:51:18.309Z,22.51
2023-07-11T22:53:45.852Z,22.43
2023-07-11T22:56:22.285Z,22.38
2023-07-11T22:58:50.081Z,22.27
2023-07-11T23:01:19.258Z,22.12
2023-07-11T23:03:48.974Z,22.14
2023-07-11T23:06:28.039Z,22.10
2023-07-11T23:08:58.568Z,22.02
2023-07-11T23:11:26.765Z,22.03
2023-07-11T23:13:53.474Z,21.99
2023-07-11T23:16:30.339Z,22.04
2023-07-11T23:19:01.014Z,22.00
2023-07-11T23:21:31.207Z,22.01
2023-07-11T23:24:01.817Z,21.95
2023-07-11T23:26:29.622Z,21.85
2023-07-11T23:28:56.647Z,21.83
2023-07-11T23:31:24.069Z,21.71
2023-07-11T23:33:53.131Z,21.73
2023-07-11T23:36:25.722Z,21.80
2023-07-11T23:38:53.974Z,21.83
2023-07-11T23:41:24.460Z,21.71
2023-07-11T23:43:53.207Z,21.78
2023-07-11T23:46:26.920Z,21.65
2023-07-11T23:48:54.644Z,21.67
2023-07-11T23:51:23.310Z,21.56
2023-07-11T23:53:51.176Z,21.64
2023-07-11T23:56:39.691Z,21.57
2023-07-11T23:59:06.605Z,21.53
